createdAt,value
2022-09-09T00:00:58.481Z,99.90
2022-09-09T00:03:32.462Z,99.90
2022-09-09T00:06:13.081Z,99.90
2022-09-09T00:08:56.359Z,99.90
2022-09-09T00:11:33.698Z,99.90
2022-09-09T00:14:10.634Z,99.90
2022-09-09T00:16:47.176Z,99.90
2022-09-09T00:19:27.171Z,99.90
2022-09-09T00:22:19.504Z,99.90
2022-09-09T00:24:54.606Z,99.90
2022-09-09T00:27:36.713Z,99.90
2022-09-09T00:30:20.944Z,99.90
2022-09-09T00:33:16.687Z,99.90
2022-09-09T00:35:50.521Z,99.90
2022-09-09T00:38:34.298Z,99.90
2022-09-09T00:41:14.059Z,99.90
2022-09-09T00:43:43.726Z,99.90
2022-09-09T00:46:48.091Z,99.90
2022-09-09T00:49:37.161Z,99.90
2022-09-09T00:52:28.113Z,99.90
2022-09-09T00:55:10.940Z,99.90
2022-09-09T00:57:42.117Z,99.90
2022-09-09T01:00:27.561Z,99.90
2022-09-09T01:03:25.650Z,99.90
2022-09-09T01:06:07.869Z,99.90
2022-09-09T01:08:58.452Z,99.90
2022-09-09T01:11:39.265Z,99.90
2022-09-09T01:14:32.801Z,99.90
2022-09-09T01:17:07.553Z,99.90
2022-09-09T01:19:58.606Z,99.90
2022-09-09T01:22:40.046Z,99.90
2022-09-09T01:26:19.812Z,99.90
2022-09-09T01:28:53.606Z,99.90
2022-09-09T01:31:27.441Z,99.90
2022-09-09T01:33:56.260Z,99.90
2022-09-09T01:36:37.337Z,99.90
2022-09-09T01:39:06.487Z,99.90
2022-09-09T01:41:36.644Z,99.90
2022-09-09T01:44:06.329Z,99.90
2022-09-09T01:46:35.420Z,99.90
2022-09-09T01:49:09.159Z,99.90
2022-09-09T01:51:41.365Z,99.90
2022-09-09T01:54:10.849Z,99.90
2022-09-09T01:57:00.901Z,99.90
2022-09-09T02:00:02.241Z,99.90
2022-09-09T02:02:39.005Z,99.90
2022-09-09T02:05:25.408Z,99.90
2022-09-09T02:08:03.365Z,99.90
2022-09-09T02:10:40.162Z,99.90
2022-09-09T02:13:14.819Z,99.90
2022-09-09T02:15:51.968Z,99.90
2022-09-09T02:18:28.824Z,99.90
2022-09-09T02:21:00.375Z,99.90
2022-09-09T02:23:31.430Z,99.90
2022-09-09T02:26:02.429Z,99.90
2022-09-09T02:28:36.185Z,99.90
2022-09-09T02:31:27.236Z,99.90
2022-09-09T02:34:01.464Z,99.90
2022-09-09T02:36:36.085Z,99.90
2022-09-09T02:39:09.833Z,99.90
2022-09-09T02:41:42.228Z,99.90
2022-09-09T02:44:18.244Z,99.90
2022-09-09T02:47:29.317Z,99.90
2022-09-09T02:50:14.740Z,99.90
2022-09-09T02:53:24.872Z,99.90
2022-09-09T02:56:05.459Z,99.90
2022-09-09T02:58:35.410Z,99.90
2022-09-09T03:01:06.216Z,99.90
2022-09-09T03:03:36.528Z,99.90
2022-09-09T03:06:07.032Z,99.90
2022-09-09T03:08:37.168Z,99.90
2022-09-09T03:11:06.525Z,99.90
2022-09-09T03:13:35.770Z,99.90
2022-09-09T03:16:06.719Z,99.90
2022-09-09T03:18:36.217Z,99.90
2022-09-09T03:21:05.152Z,99.90
2022-09-09T03:23:33.777Z,99.90
2022-09-09T03:26:03.187Z,99.90
2022-09-09T03:28:32.601Z,99.90
2022-09-09T03:31:02.724Z,99.90
2022-09-09T03:33:35.594Z,99.90
2022-09-09T03:36:05.079Z,99.90
2022-09-09T03:38:34.715Z,99.90
2022-09-09T03:41:03.712Z,99.90
2022-09-09T03:43:32.928Z,99.90
2022-09-09T03:46:01.979Z,99.90
2022-09-09T03:48:33.465Z,99.90
2022-09-09T03:51:04.095Z,99.90
2022-09-09T03:53:34.503Z,99.90
2022-09-09T03:56:04.331Z,99.90
2022-09-09T03:58:33.275Z,99.90
2022-09-09T04:01:05.584Z,99.90
2022-09-09T04:03:35.729Z,99.90
2022-09-09T04:06:08.657Z,99.90
2022-09-09T04:08:38.825Z,99.90
2022-09-09T04:11:08.743Z,99.90
2022-09-09T04:13:40.424Z,99.90
2022-09-09T04:16:11.996Z,99.90
2022-09-09T04:18:43.208Z,99.90
2022-09-09T04:21:13.547Z,99.90
2022-09-09T04:23:42.662Z,99.90
2022-09-09T04:26:12.133Z,99.90
2022-09-09T04:28:40.904Z,99.90
2022-09-09T04:31:13.221Z,99.90
2022-09-09T04:33:43.788Z,99.90
2022-09-09T04:36:13.699Z,99.90
2022-09-09T04:38:54.322Z,99.90
2022-09-09T04:41:24.087Z,99.90
2022-09-09T04:43:54.780Z,99.90
2022-09-09T04:46:24.105Z,99.90
2022-09-09T04:48:55.320Z,99.90
2022-09-09T04:51:24.257Z,99.90
2022-09-09T04:53:55.183Z,99.90
2022-09-09T04:56:24.478Z,99.90
2022-09-09T04:58:56.597Z,99.90
2022-09-09T05:01:28.782Z,99.90
2022-09-09T05:04:17.481Z,99.90
2022-09-09T05:06:46.935Z,99.90
2022-09-09T05:09:17.513Z,99.90
2022-09-09T05:11:46.282Z,99.90
2022-09-09T05:14:15.806Z,99.90
2022-09-09T05:16:45.422Z,99.90
2022-09-09T05:19:14.569Z,99.90
2022-09-09T05:21:45.389Z,99.90
2022-09-09T05:24:14.527Z,99.90
2022-09-09T05:26:43.950Z,99.90
2022-09-09T05:29:12.827Z,99.90
2022-09-09T05:31:42.543Z,99.90
2022-09-09T05:34:11.380Z,99.90
2022-09-09T05:36:40.574Z,99.90
2022-09-09T05:39:13.205Z,99.90
2022-09-09T05:41:41.834Z,99.90
2022-09-09T05:44:10.514Z,99.90
2022-09-09T05:46:39.583Z,99.90
2022-09-09T05:49:09.432Z,99.90
2022-09-09T05:51:38.751Z,99.90
2022-09-09T05:54:08.086Z,99.90
2022-09-09T05:56:38.512Z,99.90
2022-09-09T05:59:07.901Z,99.90
2022-09-09T06:01:42.075Z,99.90
2022-09-09T06:04:11.735Z,99.90
2022-09-09T06:06:43.396Z,99.90
2022-09-09T06:09:12.958Z,99.90
2022-09-09T06:11:46.673Z,99.90
2022-09-09T06:14:15.793Z,99.90
2022-09-09T06:16:45.590Z,99.90
2022-09-09T06:19:15.461Z,99.90
2022-09-09T06:21:45.754Z,99.90
2022-09-09T06:24:18.236Z,99.90
2022-09-09T06:26:49.342Z,99.90
2022-09-09T06:29:17.867Z,99.90
2022-09-09T06:31:47.077Z,99.90
2022-09-09T06:34:17.185Z,99.90
2022-09-09T06:36:46.884Z,99.90
2022-09-09T06:39:16.828Z,99.90
2022-09-09T06:41:48.331Z,99.90
2022-09-09T06:44:18.092Z,99.90
2022-09-09T06:46:49.373Z,99.90
2022-09-09T06:49:18.346Z,99.90
2022-09-09T06:51:47.788Z,99.90
2022-09-09T06:54:16.776Z,99.90
2022-09-09T06:56:47.212Z,99.90
2022-09-09T06:59:16.441Z,99.90
2022-09-09T07:01:50.300Z,99.90
2022-09-09T07:04:20.993Z,99.90
2022-09-09T07:06:50.263Z,99.90
2022-09-09T07:09:19.774Z,99.90
2022-09-09T07:11:53.980Z,99.90
2022-09-09T07:14:23.074Z,99.90
2022-09-09T07:16:52.657Z,99.90
2022-09-09T07:19:23.697Z,99.90
2022-09-09T07:22:18.182Z,99.90
2022-09-09T07:24:47.373Z,99.90
2022-09-09T07:27:17.645Z,99.90
2022-09-09T07:29:46.679Z,99.90
2022-09-09T07:32:16.525Z,99.90
2022-09-09T07:34:45.086Z,99.90
2022-09-09T07:37:14.662Z,99.90
2022-09-09T07:39:43.518Z,99.90
2022-09-09T07:42:12.874Z,99.90
2022-09-09T07:44:43.194Z,99.90
2022-09-09T07:47:12.013Z,99.90
2022-09-09T07:49:40.881Z,99.90
2022-09-09T07:52:10.385Z,99.90
2022-09-09T07:54:39.366Z,99.90
2022-09-09T07:57:08.459Z,99.90
2022-09-09T07:59:37.200Z,99.90
2022-09-09T08:02:08.545Z,99.90
2022-09-09T08:04:38.173Z,99.90
2022-09-09T08:07:07.510Z,99.90
2022-09-09T08:09:36.132Z,99.90
2022-09-09T08:12:06.666Z,99.90
2022-09-09T08:14:35.289Z,99.90
2022-09-09T08:17:04.241Z,99.90
2022-09-09T08:19:37.269Z,99.90
2022-09-09T08:22:06.052Z,99.90
2022-09-09T08:24:35.509Z,99.90
2022-09-09T08:27:04.258Z,99.90
2022-09-09T08:29:33.223Z,99.90
2022-09-09T08:32:03.088Z,99.40
2022-09-09T08:34:33.799Z,99.60
2022-09-09T08:37:03.501Z,99.90
2022-09-09T08:39:33.460Z,99.90
2022-09-09T08:42:33.119Z,99.90
2022-09-09T08:45:22.672Z,99.90
2022-09-09T08:48:08.651Z,99.90
2022-09-09T08:50:42.718Z,99.90
2022-09-09T08:53:21.351Z,99.90
2022-09-09T08:55:54.164Z,98.70
2022-09-09T08:58:26.827Z,97.90
2022-09-09T09:01:36.823Z,98.00
2022-09-09T09:04:20.765Z,98.40
2022-09-09T09:07:06.551Z,97.40
2022-09-09T09:09:48.758Z,96.90
2022-09-09T09:12:23.531Z,97.60
2022-09-09T09:14:52.654Z,97.10
2022-09-09T09:17:23.526Z,97.10
2022-09-09T09:19:53.118Z,98.50
2022-09-09T09:22:25.680Z,97.60
2022-09-09T09:24:58.670Z,97.10
2022-09-09T09:27:38.022Z,96.20
2022-09-09T09:30:30.066Z,96.90
2022-09-09T09:33:05.227Z,97.20
2022-09-09T09:35:38.558Z,97.70
2022-09-09T09:41:10.727Z,96.60
2022-09-09T09:43:43.525Z,97.70
2022-09-09T09:46:25.370Z,98.20
2022-09-09T09:49:01.149Z,98.70
2022-09-09T09:51:33.349Z,99.40
2022-09-09T09:54:31.386Z,99.90
2022-09-09T09:57:12.739Z,99.90
2022-09-09T09:59:41.987Z,99.90
2022-09-09T10:02:22.326Z,99.90
2022-09-09T10:04:50.989Z,99.90
2022-09-09T10:07:24.029Z,99.90
2022-09-09T10:09:59.805Z,99.90
2022-09-09T10:12:49.817Z,99.90
2022-09-09T10:15:37.896Z,99.90
2022-09-09T10:18:25.271Z,99.90
2022-09-09T10:21:06.353Z,99.90
2022-09-09T10:23:58.721Z,99.90
2022-09-09T10:26:47.435Z,99.90
2022-09-09T10:29:44.982Z,99.90
2022-09-09T10:32:38.334Z,99.90
2022-09-09T10:35:16.734Z,99.90
2022-09-09T10:38:15.938Z,99.90
2022-09-09T10:41:03.035Z,99.90
2022-09-09T10:44:17.273Z,99.90
2022-09-09T10:47:08.187Z,99.90
2022-09-09T10:50:04.569Z,99.90
2022-09-09T10:52:41.557Z,99.90
2022-09-09T10:55:16.792Z,99.90
2022-09-09T10:57:49.832Z,99.90
2022-09-09T11:00:23.285Z,99.90
2022-09-09T11:02:58.660Z,99.90
2022-09-09T11:05:35.116Z,99.90
2022-09-09T11:08:09.761Z,99.90
2022-09-09T11:10:46.169Z,99.90
2022-09-09T11:13:27.369Z,99.90
2022-09-09T11:16:07.296Z,99.90
2022-09-09T11:18:43.728Z,99.90
2022-09-09T11:21:25.668Z,99.90
2022-09-09T11:23:59.276Z,99.90
2022-09-09T11:26:38.133Z,99.90
2022-09-09T11:29:45.189Z,99.90
2022-09-09T11:33:05.776Z,99.90
2022-09-09T11:35:52.961Z,99.90
2022-09-09T11:38:29.277Z,99.90
2022-09-09T11:41:02.091Z,99.90
2022-09-09T11:43:36.160Z,99.90
2022-09-09T11:46:05.951Z,99.90
2022-09-09T11:48:39.924Z,99.90
2022-09-09T11:51:16.630Z,99.90
2022-09-09T11:53:55.024Z,99.90
2022-09-09T11:56:32.922Z,99.90
2022-09-09T11:59:05.629Z,99.90
2022-09-09T12:01:44.052Z,99.90
2022-09-09T12:04:40.829Z,99.90
2022-09-09T12:07:33.472Z,99.90
2022-09-09T12:10:08.042Z,99.90
2022-09-09T12:12:43.184Z,99.90
2022-09-09T12:15:30.598Z,99.90
2022-09-09T12:18:03.876Z,99.90
2022-09-09T12:20:39.939Z,99.90
2022-09-09T12:23:26.182Z,99.90
2022-09-09T12:26:26.996Z,99.90
2022-09-09T12:29:10.567Z,99.90
2022-09-09T12:31:50.619Z,99.90
2022-09-09T12:34:31.664Z,99.90
2022-09-09T12:37:08.468Z,99.90
2022-09-09T12:39:49.226Z,99.90
2022-09-09T12:42:23.244Z,99.90
2022-09-09T12:44:57.644Z,99.90
2022-09-09T12:47:36.902Z,99.90
2022-09-09T12:50:06.650Z,99.90
2022-09-09T12:52:40.205Z,99.90
2022-09-09T12:55:10.233Z,99.90
2022-09-09T12:57:41.678Z,99.90
2022-09-09T13:00:18.663Z,99.90
2022-09-09T13:02:53.352Z,99.90
2022-09-09T13:05:26.126Z,99.90
2022-09-09T13:08:04.630Z,99.90
2022-09-09T13:10:52.879Z,99.90
2022-09-09T13:13:28.315Z,99.90
2022-09-09T13:15:59.881Z,99.90
2022-09-09T13:18:32.236Z,99.90
2022-09-09T13:21:18.064Z,99.90
2022-09-09T13:23:53.268Z,99.90
2022-09-09T13:26:28.362Z,99.90
2022-09-09T13:29:09.425Z,99.90
2022-09-09T13:31:39.525Z,99.90
2022-09-09T13:34:15.318Z,99.90
2022-09-09T13:36:49.905Z,99.90
2022-09-09T13:39:20.452Z,99.90
2022-09-09T13:41:50.639Z,99.90
2022-09-09T13:44:26.056Z,99.90
2022-09-09T13:47:10.259Z,99.90
2022-09-09T13:49:39.312Z,99.90
2022-09-09T13:52:14.582Z,99.90
2022-09-09T13:54:45.594Z,99.90
2022-09-09T13:57:20.164Z,99.90
2022-09-09T14:00:06.870Z,99.90
2022-09-09T14:02:42.016Z,99.90
2022-09-09T14:05:10.714Z,99.90
2022-09-09T14:07:41.131Z,99.90
2022-09-09T14:10:12.725Z,99.90
2022-09-09T14:12:41.555Z,99.90
2022-09-09T14:15:13.833Z,99.90
2022-09-09T14:17:42.320Z,99.90
2022-09-09T14:20:13.187Z,99.90
2022-09-09T14:22:41.938Z,99.90
2022-09-09T14:25:12.430Z,99.90
2022-09-09T14:27:41.522Z,99.90
2022-09-09T14:30:12.043Z,99.90
2022-09-09T14:32:40.703Z,99.90
2022-09-09T14:35:10.605Z,99.90
2022-09-09T14:37:40.466Z,99.90
2022-09-09T14:40:11.529Z,99.90
2022-09-09T14:42:40.342Z,99.90
2022-09-09T14:45:10.656Z,99.90
2022-09-09T14:47:39.566Z,99.90
2022-09-09T14:50:09.255Z,99.90
2022-09-09T14:52:37.872Z,99.90
2022-09-09T14:55:08.423Z,99.90
2022-09-09T14:57:38.845Z,99.90
2022-09-09T15:00:10.145Z,99.90
2022-09-09T15:02:39.488Z,99.90
2022-09-09T15:05:09.599Z,99.90
2022-09-09T15:07:39.049Z,99.90
2022-09-09T15:10:08.732Z,99.90
2022-09-09T15:12:39.631Z,99.90
2022-09-09T15:15:09.390Z,99.90
2022-09-09T15:17:38.941Z,99.90
2022-09-09T15:20:09.223Z,99.90
2022-09-09T15:22:39.030Z,99.90
2022-09-09T15:25:09.408Z,99.90
2022-09-09T15:27:52.153Z,99.90
2022-09-09T15:30:21.281Z,99.90
2022-09-09T15:32:50.027Z,99.90
2022-09-09T15:35:19.092Z,99.90
2022-09-09T15:37:47.848Z,99.90
2022-09-09T15:40:16.714Z,99.90
2022-09-09T15:42:47.244Z,99.90
2022-09-09T15:45:17.892Z,99.90
2022-09-09T15:47:46.907Z,99.90
2022-09-09T15:50:16.216Z,99.90
2022-09-09T15:52:45.841Z,99.90
2022-09-09T15:55:14.482Z,99.90
2022-09-09T15:57:43.226Z,99.90
2022-09-09T16:00:14.931Z,99.90
2022-09-09T16:02:45.449Z,99.90
2022-09-09T16:05:14.254Z,99.90
2022-09-09T16:07:43.385Z,99.90
2022-09-09T16:10:14.553Z,99.90
2022-09-09T16:12:43.412Z,99.90
2022-09-09T16:15:13.989Z,99.90
2022-09-09T16:17:42.759Z,99.90
2022-09-09T16:20:13.135Z,99.90
2022-09-09T16:22:43.508Z,99.90
2022-09-09T16:25:12.519Z,99.90
2022-09-09T16:27:41.903Z,99.90
2022-09-09T16:30:11.945Z,99.90
2022-09-09T16:32:41.006Z,99.90
2022-09-09T16:35:12.856Z,99.90
2022-09-09T16:37:42.079Z,99.90
2022-09-09T16:40:11.657Z,99.90
2022-09-09T16:42:40.704Z,99.90
2022-09-09T16:45:11.559Z,99.90
2022-09-09T16:47:40.975Z,99.90
2022-09-09T16:50:10.793Z,99.90
2022-09-09T16:52:41.215Z,99.90
2022-09-09T16:55:11.329Z,99.90
2022-09-09T16:57:39.913Z,99.90
2022-09-09T17:00:10.761Z,99.90
2022-09-09T17:02:39.333Z,99.90
2022-09-09T17:05:09.174Z,99.90
2022-09-09T17:07:37.925Z,99.90
2022-09-09T17:10:10.009Z,99.90
2022-09-09T17:12:42.140Z,99.90
2022-09-09T17:15:32.710Z,99.90
2022-09-09T17:18:01.640Z,99.90
2022-09-09T17:20:40.665Z,99.90
2022-09-09T17:23:16.341Z,99.90
2022-09-09T17:25:46.861Z,99.90
2022-09-09T17:28:16.442Z,99.90
2022-09-09T17:30:45.013Z,99.90
2022-09-09T17:33:20.973Z,99.90
2022-09-09T17:35:50.227Z,99.90
2022-09-09T17:38:19.354Z,99.90
2022-09-09T17:40:49.323Z,99.90
2022-09-09T17:43:18.707Z,99.90
2022-09-09T17:45:47.472Z,99.90
2022-09-09T17:48:16.018Z,99.90
2022-09-09T17:50:44.731Z,99.90
2022-09-09T17:53:13.166Z,99.90
2022-09-09T17:55:42.080Z,99.90
2022-09-09T17:58:12.606Z,99.90
2022-09-09T18:00:41.491Z,99.90
2022-09-09T18:03:10.081Z,99.90
2022-09-09T18:05:39.269Z,99.90
2022-09-09T18:08:08.143Z,99.90
2022-09-09T18:10:36.849Z,99.90
2022-09-09T18:13:07.042Z,99.90
2022-09-09T18:15:49.277Z,99.90
2022-09-09T18:18:19.008Z,99.90
2022-09-09T18:20:47.934Z,99.90
2022-09-09T18:23:16.449Z,99.90
2022-09-09T18:25:46.036Z,99.90
2022-09-09T18:28:14.458Z,99.90
2022-09-09T18:30:44.723Z,99.90
2022-09-09T18:33:13.477Z,99.90
2022-09-09T18:35:42.140Z,99.90
2022-09-09T18:38:11.073Z,99.90
2022-09-09T18:40:39.572Z,99.90
2022-09-09T18:43:08.386Z,99.90
2022-09-09T18:45:38.431Z,99.90
2022-09-09T18:48:08.382Z,99.90
2022-09-09T18:50:36.973Z,99.90
2022-09-09T18:53:05.778Z,99.90
2022-09-09T18:55:35.085Z,99.90
2022-09-09T18:58:03.779Z,99.90
2022-09-09T19:00:32.877Z,99.90
2022-09-09T19:03:01.493Z,99.90
2022-09-09T19:05:32.604Z,99.90
2022-09-09T19:08:01.231Z,99.90
2022-09-09T19:10:31.662Z,99.90
2022-09-09T19:13:01.222Z,99.90
2022-09-09T19:15:29.923Z,99.90
2022-09-09T19:18:00.794Z,99.90
2022-09-09T19:20:34.659Z,99.90
2022-09-09T19:23:03.347Z,99.90
2022-09-09T19:25:33.235Z,99.90
2022-09-09T19:28:04.002Z,99.90
2022-09-09T19:30:35.217Z,99.90
2022-09-09T19:33:04.447Z,99.90
2022-09-09T19:35:34.300Z,99.90
2022-09-09T19:38:02.865Z,99.90
2022-09-09T19:40:40.418Z,99.90
2022-09-09T19:43:09.774Z,99.90
2022-09-09T19:45:38.401Z,99.90
2022-09-09T19:48:07.292Z,99.90
2022-09-09T19:50:38.509Z,99.90
2022-09-09T19:53:06.992Z,99.90
2022-09-09T19:55:40.490Z,99.90
2022-09-09T19:58:09.257Z,99.90
2022-09-09T20:00:39.485Z,99.90
2022-09-09T20:03:19.029Z,99.90
2022-09-09T20:05:50.403Z,99.90
2022-09-09T20:08:19.688Z,99.90
2022-09-09T20:10:56.611Z,99.90
2022-09-09T20:13:25.739Z,99.90
2022-09-09T20:16:02.758Z,99.90
2022-09-09T20:18:33.368Z,99.90
2022-09-09T20:21:07.503Z,99.90
2022-09-09T20:23:37.353Z,99.90
2022-09-09T20:26:09.540Z,99.90
2022-09-09T20:28:40.628Z,99.90
2022-09-09T20:31:12.371Z,99.90
2022-09-09T20:33:43.149Z,99.90
2022-09-09T20:36:15.971Z,99.90
2022-09-09T20:38:46.511Z,99.90
2022-09-09T20:41:18.570Z,99.90
2022-09-09T20:43:49.540Z,99.90
2022-09-09T20:46:19.121Z,99.90
2022-09-09T20:48:49.004Z,99.90
2022-09-09T20:51:20.426Z,99.90
2022-09-09T20:53:49.360Z,99.90
2022-09-09T20:56:19.224Z,99.90
2022-09-09T20:58:48.494Z,99.90
2022-09-09T21:01:19.640Z,99.90
2022-09-09T21:03:49.087Z,99.90
2022-09-09T21:06:19.598Z,99.90
2022-09-09T21:08:48.899Z,99.90
2022-09-09T21:11:18.026Z,99.90
2022-09-09T21:13:46.712Z,99.90
2022-09-09T21:16:19.616Z,99.90
2022-09-09T21:18:49.336Z,99.90
2022-09-09T21:21:21.048Z,99.90
2022-09-09T21:23:50.045Z,99.90
2022-09-09T21:26:19.765Z,99.90
2022-09-09T21:28:48.470Z,99.90
2022-09-09T21:31:20.018Z,99.90
2022-09-09T21:33:48.802Z,99.90
2022-09-09T21:36:18.773Z,99.90
2022-09-09T21:39:01.425Z,99.90
2022-09-09T21:41:29.958Z,99.90
2022-09-09T21:43:58.389Z,99.90
2022-09-09T21:46:28.299Z,99.90
2022-09-09T21:48:58.195Z,99.90
2022-09-09T21:51:28.101Z,99.90
2022-09-09T21:53:58.026Z,99.90
2022-09-09T21:56:26.962Z,99.90
2022-09-09T21:59:21.142Z,99.90
2022-09-09T22:01:50.076Z,99.90
2022-09-09T22:04:18.770Z,99.90
2022-09-09T22:06:49.308Z,99.90
2022-09-09T22:09:18.401Z,99.90
2022-09-09T22:11:46.860Z,99.90
2022-09-09T22:14:16.282Z,99.90
2022-09-09T22:16:44.720Z,99.90
2022-09-09T22:19:13.417Z,99.90
2022-09-09T22:21:42.192Z,99.90
2022-09-09T22:24:13.526Z,99.90
2022-09-09T22:26:42.262Z,99.90
2022-09-09T22:29:11.761Z,99.90
2022-09-09T22:31:40.733Z,99.90
2022-09-09T22:34:10.609Z,99.90
2022-09-09T22:36:40.130Z,99.90
2022-09-09T22:39:09.016Z,99.90
2022-09-09T22:41:39.406Z,99.90
2022-09-09T22:44:10.212Z,99.90
2022-09-09T22:46:39.849Z,99.90
2022-09-09T22:49:08.510Z,99.90
2022-09-09T22:51:37.863Z,99.90
2022-09-09T22:54:07.990Z,99.90
2022-09-09T22:56:38.055Z,99.90
2022-09-09T22:59:31.288Z,99.90
2022-09-09T23:01:59.992Z,99.90
2022-09-09T23:04:28.482Z,99.90
2022-09-09T23:06:59.801Z,99.90
2022-09-09T23:09:28.981Z,99.90
2022-09-09T23:11:59.150Z,99.90
2022-09-09T23:14:27.869Z,99.90
2022-09-09T23:16:56.910Z,99.90
2022-09-09T23:19:28.808Z,99.90
2022-09-09T23:21:58.395Z,99.90
2022-09-09T23:24:52.850Z,99.90
2022-09-09T23:27:23.072Z,99.90
2022-09-09T23:29:52.391Z,99.90
2022-09-09T23:32:21.995Z,99.90
2022-09-09T23:34:50.546Z,99.90
2022-09-09T23:37:20.239Z,99.90
2022-09-09T23:39:50.348Z,99.90
2022-09-09T23:42:19.128Z,99.90
2022-09-09T23:44:49.544Z,99.90
2022-09-09T23:47:18.052Z,99.90
2022-09-09T23:49:50.627Z,99.90
2022-09-09T23:52:19.351Z,99.90
2022-09-09T23:54:49.766Z,99.90
2022-09-09T23:57:18.635Z,99.90
2022-09-09T23:59:49.052Z,99.90
